sensor_id;sensor_type;location;lat;lon;timestamp;P1;durP1;ratioP1;P2;durP2;ratioP2
56667;SDS011;42542;48.360;10.958;2024-01-25T00:00:19;5.20;;;1.20;;
56667;SDS011;42542;48.360;10.958;2024-01-25T00:03:22;6.63;;;1.20;;
56667;SDS011;42542;48.360;10.958;2024-01-25T00:06:23;8.07;;;1.30;;
56667;SDS011;42542;48.360;10.958;2024-01-25T00:09:27;7.55;;;1.40;;
56667;SDS011;42542;48.360;10.958;2024-01-25T00:12:29;6.45;;;1.38;;
56667;SDS011;42542;48.360;10.958;2024-01-25T00:15:31;11.07;;;1.70;;
56667;SDS011;42542;48.360;10.958;2024-01-25T00:18:33;8.02;;;1.50;;
56667;SDS011;42542;48.360;10.958;2024-01-25T00:21:40;7.50;;;1.17;;
56667;SDS011;42542;48.360;10.958;2024-01-25T00:24:43;5.72;;;1.02;;
56667;SDS011;42542;48.360;10.958;2024-01-25T00:27:46;7.43;;;1.60;;
56667;SDS011;42542;48.360;10.958;2024-01-25T00:30:48;7.87;;;1.50;;
56667;SDS011;42542;48.360;10.958;2024-01-25T00:33:51;7.85;;;1.38;;
56667;SDS011;42542;48.360;10.958;2024-01-25T00:36:53;7.68;;;1.40;;
56667;SDS011;42542;48.360;10.958;2024-01-25T00:39:55;9.05;;;1.73;;
56667;SDS011;42542;48.360;10.958;2024-01-25T00:42:57;13.73;;;2.47;;
56667;SDS011;42542;48.360;10.958;2024-01-25T00:46:00;6.82;;;1.17;;
56667;SDS011;42542;48.360;10.958;2024-01-25T00:49:02;7.63;;;1.05;;
56667;SDS011;42542;48.360;10.958;2024-01-25T00:52:04;12.00;;;1.80;;
56667;SDS011;42542;48.360;10.958;2024-01-25T00:55:07;10.93;;;1.35;;
56667;SDS011;42542;48.360;10.958;2024-01-25T00:58:09;7.93;;;1.40;;
56667;SDS011;42542;48.360;10.958;2024-01-25T01:01:11;10.57;;;1.70;;
56667;SDS011;42542;48.360;10.958;2024-01-25T01:04:14;8.00;;;1.35;;
56667;SDS011;42542;48.360;10.958;2024-01-25T01:07:16;16.55;;;1.30;;
56667;SDS011;42542;48.360;10.958;2024-01-25T01:10:18;8.95;;;1.35;;
56667;SDS011;42542;48.360;10.958;2024-01-25T01:13:21;6.93;;;1.52;;
56667;SDS011;42542;48.360;10.958;2024-01-25T01:16:24;5.40;;;1.08;;
56667;SDS011;42542;48.360;10.958;2024-01-25T01:19:25;9.93;;;1.45;;
56667;SDS011;42542;48.360;10.958;2024-01-25T01:22:27;7.87;;;1.27;;
56667;SDS011;42542;48.360;10.958;2024-01-25T01:25:29;11.90;;;1.80;;
56667;SDS011;42542;48.360;10.958;2024-01-25T01:28:32;14.13;;;1.45;;
56667;SDS011;42542;48.360;10.958;2024-01-25T01:31:34;9.07;;;1.67;;
56667;SDS011;42542;48.360;10.958;2024-01-25T01:34:35;10.68;;;1.48;;
56667;SDS011;42542;48.360;10.958;2024-01-25T01:37:37;9.95;;;1.42;;
56667;SDS011;42542;48.360;10.958;2024-01-25T01:40:39;7.65;;;1.30;;
56667;SDS011;42542;48.360;10.958;2024-01-25T01:43:41;7.32;;;1.40;;
56667;SDS011;42542;48.360;10.958;2024-01-25T01:46:43;9.40;;;1.75;;
56667;SDS011;42542;48.360;10.958;2024-01-25T01:49:47;11.55;;;1.40;;
56667;SDS011;42542;48.360;10.958;2024-01-25T01:52:50;7.67;;;1.30;;
56667;SDS011;42542;48.360;10.958;2024-01-25T01:55:53;10.10;;;1.30;;
56667;SDS011;42542;48.360;10.958;2024-01-25T01:59:04;11.55;;;1.33;;
56667;SDS011;42542;48.360;10.958;2024-01-25T02:02:10;13.23;;;1.30;;
56667;SDS011;42542;48.360;10.958;2024-01-25T02:05:11;8.77;;;1.50;;
56667;SDS011;42542;48.360;10.958;2024-01-25T02:08:15;12.35;;;1.40;;
56667;SDS011;42542;48.360;10.958;2024-01-25T02:11:17;6.93;;;1.10;;
56667;SDS011;42542;48.360;10.958;2024-01-25T02:14:20;12.38;;;1.60;;
56667;SDS011;42542;48.360;10.958;2024-01-25T02:17:22;9.88;;;1.40;;
56667;SDS011;42542;48.360;10.958;2024-01-25T02:20:24;8.70;;;1.30;;
56667;SDS011;42542;48.360;10.958;2024-01-25T02:23:26;9.70;;;1.20;;
56667;SDS011;42542;48.360;10.958;2024-01-25T02:26:29;7.05;;;1.40;;
56667;SDS011;42542;48.360;10.958;2024-01-25T02:29:30;13.52;;;1.98;;
56667;SDS011;42542;48.360;10.958;2024-01-25T02:32:33;13.97;;;1.60;;
56667;SDS011;42542;48.360;10.958;2024-01-25T02:35:35;10.63;;;1.48;;
56667;SDS011;42542;48.360;10.958;2024-01-25T02:38:38;8.73;;;1.35;;
56667;SDS011;42542;48.360;10.958;2024-01-25T02:41:39;9.55;;;1.40;;
56667;SDS011;42542;48.360;10.958;2024-01-25T02:44:41;10.50;;;1.23;;
56667;SDS011;42542;48.360;10.958;2024-01-25T02:47:44;8.02;;;1.33;;
56667;SDS011;42542;48.360;10.958;2024-01-25T02:50:46;9.07;;;1.23;;
56667;SDS011;42542;48.360;10.958;2024-01-25T02:53:47;10.80;;;1.57;;
56667;SDS011;42542;48.360;10.958;2024-01-25T02:56:51;6.95;;;1.15;;
56667;SDS011;42542;48.360;10.958;2024-01-25T02:59:53;10.75;;;1.38;;
56667;SDS011;42542;48.360;10.958;2024-01-25T03:02:54;10.77;;;1.40;;
56667;SDS011;42542;48.360;10.958;2024-01-25T03:05:56;7.43;;;1.27;;
56667;SDS011;42542;48.360;10.958;2024-01-25T03:08:58;8.88;;;1.10;;
56667;SDS011;42542;48.360;10.958;2024-01-25T03:12:00;11.90;;;1.45;;
56667;SDS011;42542;48.360;10.958;2024-01-25T03:15:02;10.57;;;1.58;;
56667;SDS011;42542;48.360;10.958;2024-01-25T03:18:07;11.77;;;1.30;;
56667;SDS011;42542;48.360;10.958;2024-01-25T03:21:10;10.80;;;1.77;;
56667;SDS011;42542;48.360;10.958;2024-01-25T03:24:11;9.17;;;1.10;;
56667;SDS011;42542;48.360;10.958;2024-01-25T03:27:15;10.82;;;1.35;;
56667;SDS011;42542;48.360;10.958;2024-01-25T03:30:16;9.07;;;1.40;;
56667;SDS011;42542;48.360;10.958;2024-01-25T03:33:18;8.00;;;1.20;;
56667;SDS011;42542;48.360;10.958;2024-01-25T03:36:20;11.73;;;1.70;;
56667;SDS011;42542;48.360;10.958;2024-01-25T03:39:23;10.63;;;1.50;;
56667;SDS011;42542;48.360;10.958;2024-01-25T03:42:25;12.32;;;1.52;;
56667;SDS011;42542;48.360;10.958;2024-01-25T03:45:27;8.20;;;1.45;;
56667;SDS011;42542;48.360;10.958;2024-01-25T03:48:30;8.25;;;1.30;;
56667;SDS011;42542;48.360;10.958;2024-01-25T03:51:32;9.20;;;1.20;;
56667;SDS011;42542;48.360;10.958;2024-01-25T03:54:34;6.17;;;1.20;;
56667;SDS011;42542;48.360;10.958;2024-01-25T03:57:36;10.82;;;1.50;;
56667;SDS011;42542;48.360;10.958;2024-01-25T04:00:41;11.00;;;1.40;;
56667;SDS011;42542;48.360;10.958;2024-01-25T04:03:44;7.50;;;1.57;;
56667;SDS011;42542;48.360;10.958;2024-01-25T04:06:46;12.32;;;1.38;;
56667;SDS011;42542;48.360;10.958;2024-01-25T04:09:49;7.35;;;1.40;;
56667;SDS011;42542;48.360;10.958;2024-01-25T04:12:52;8.13;;;1.40;;
56667;SDS011;42542;48.360;10.958;2024-01-25T04:15:57;7.65;;;1.10;;
56667;SDS011;42542;48.360;10.958;2024-01-25T04:18:58;11.80;;;1.40;;
56667;SDS011;42542;48.360;10.958;2024-01-25T04:22:01;5.50;;;1.10;;
56667;SDS011;42542;48.360;10.958;2024-01-25T04:25:04;9.73;;;1.17;;
56667;SDS011;42542;48.360;10.958;2024-01-25T04:28:06;10.30;;;1.27;;
56667;SDS011;42542;48.360;10.958;2024-01-25T04:31:08;6.13;;;1.10;;
56667;SDS011;42542;48.360;10.958;2024-01-25T04:34:11;9.60;;;1.30;;
56667;SDS011;42542;48.360;10.958;2024-01-25T04:37:14;9.13;;;1.08;;
56667;SDS011;42542;48.360;10.958;2024-01-25T04:40:16;8.32;;;1.10;;
56667;SDS011;42542;48.360;10.958;2024-01-25T04:43:19;7.00;;;0.90;;
56667;SDS011;42542;48.360;10.958;2024-01-25T04:46:21;7.07;;;0.90;;
56667;SDS011;42542;48.360;10.958;2024-01-25T04:49:23;8.73;;;1.30;;
56667;SDS011;42542;48.360;10.958;2024-01-25T04:52:25;7.95;;;1.33;;
56667;SDS011;42542;48.360;10.958;2024-01-25T04:55:28;5.67;;;1.00;;
56667;SDS011;42542;48.360;10.958;2024-01-25T04:58:29;7.65;;;1.10;;
56667;SDS011;42542;48.360;10.958;2024-01-25T05:01:32;4.93;;;1.00;;
56667;SDS011;42542;48.360;10.958;2024-01-25T05:04:34;8.70;;;1.27;;
56667;SDS011;42542;48.360;10.958;2024-01-25T05:07:37;7.80;;;1.00;;
56667;SDS011;42542;48.360;10.958;2024-01-25T05:10:39;6.82;;;1.10;;
56667;SDS011;42542;48.360;10.958;2024-01-25T05:13:41;9.32;;;1.40;;
56667;SDS011;42542;48.360;10.958;2024-01-25T05:16:42;7.72;;;1.02;;
56667;SDS011;42542;48.360;10.958;2024-01-25T05:19:44;7.35;;;1.20;;
56667;SDS011;42542;48.360;10.958;2024-01-25T05:22:46;5.35;;;1.00;;
56667;SDS011;42542;48.360;10.958;2024-01-25T05:25:49;10.73;;;1.60;;
56667;SDS011;42542;48.360;10.958;2024-01-25T05:28:51;12.20;;;1.63;;
56667;SDS011;42542;48.360;10.958;2024-01-25T05:31:53;6.78;;;1.20;;
56667;SDS011;42542;48.360;10.958;2024-01-25T05:34:54;5.83;;;1.13;;
56667;SDS011;42542;48.360;10.958;2024-01-25T05:37:56;8.98;;;1.27;;
56667;SDS011;42542;48.360;10.958;2024-01-25T05:40:58;9.75;;;1.60;;
56667;SDS011;42542;48.360;10.958;2024-01-25T05:44:00;13.88;;;1.35;;
56667;SDS011;42542;48.360;10.958;2024-01-25T05:47:02;9.38;;;1.45;;
56667;SDS011;42542;48.360;10.958;2024-01-25T05:50:04;13.75;;;1.40;;
56667;SDS011;42542;48.360;10.958;2024-01-25T05:53:07;9.18;;;1.65;;
56667;SDS011;42542;48.360;10.958;2024-01-25T05:56:09;8.63;;;1.27;;
56667;SDS011;42542;48.360;10.958;2024-01-25T05:59:11;14.82;;;1.83;;
56667;SDS011;42542;48.360;10.958;2024-01-25T06:02:13;11.23;;;1.60;;
56667;SDS011;42542;48.360;10.958;2024-01-25T06:05:16;11.33;;;1.47;;
56667;SDS011;42542;48.360;10.958;2024-01-25T06:08:18;9.18;;;1.30;;
56667;SDS011;42542;48.360;10.958;2024-01-25T06:11:20;13.35;;;2.83;;
56667;SDS011;42542;48.360;10.958;2024-01-25T06:14:22;11.38;;;2.17;;
56667;SDS011;42542;48.360;10.958;2024-01-25T06:17:24;22.00;;;4.63;;
56667;SDS011;42542;48.360;10.958;2024-01-25T06:20:26;12.85;;;2.88;;
56667;SDS011;42542;48.360;10.958;2024-01-25T06:23:29;11.55;;;1.73;;
56667;SDS011;42542;48.360;10.958;2024-01-25T06:26:30;8.70;;;1.87;;
56667;SDS011;42542;48.360;10.958;2024-01-25T06:29:32;11.02;;;2.20;;
56667;SDS011;42542;48.360;10.958;2024-01-25T06:32:34;14.00;;;1.88;;
56667;SDS011;42542;48.360;10.958;2024-01-25T06:35:36;10.20;;;1.90;;
56667;SDS011;42542;48.360;10.958;2024-01-25T06:38:38;6.43;;;1.45;;
56667;SDS011;42542;48.360;10.958;2024-01-25T06:41:40;10.00;;;2.38;;
56667;SDS011;42542;48.360;10.958;2024-01-25T06:44:42;12.32;;;2.08;;
56667;SDS011;42542;48.360;10.958;2024-01-25T06:47:45;11.15;;;2.15;;
56667;SDS011;42542;48.360;10.958;2024-01-25T06:50:46;12.80;;;2.40;;
56667;SDS011;42542;48.360;10.958;2024-01-25T06:53:49;16.67;;;2.80;;
56667;SDS011;42542;48.360;10.958;2024-01-25T06:56:51;8.77;;;2.00;;
56667;SDS011;42542;48.360;10.958;2024-01-25T06:59:53;8.75;;;1.83;;
56667;SDS011;42542;48.360;10.958;2024-01-25T07:02:55;8.10;;;2.03;;
56667;SDS011;42542;48.360;10.958;2024-01-25T07:05:57;8.27;;;1.80;;
56667;SDS011;42542;48.360;10.958;2024-01-25T07:08:58;11.20;;;1.98;;
56667;SDS011;42542;48.360;10.958;2024-01-25T07:12:01;11.35;;;1.67;;
56667;SDS011;42542;48.360;10.958;2024-01-25T07:15:03;9.77;;;1.60;;
56667;SDS011;42542;48.360;10.958;2024-01-25T07:18:06;12.77;;;2.45;;
56667;SDS011;42542;48.360;10.958;2024-01-25T07:21:08;8.50;;;1.83;;
56667;SDS011;42542;48.360;10.958;2024-01-25T07:24:10;10.90;;;2.10;;
56667;SDS011;42542;48.360;10.958;2024-01-25T07:27:12;10.03;;;1.70;;
56667;SDS011;42542;48.360;10.958;2024-01-25T07:30:15;9.05;;;1.50;;
56667;SDS011;42542;48.360;10.958;2024-01-25T07:33:16;10.75;;;2.00;;
56667;SDS011;42542;48.360;10.958;2024-01-25T07:36:19;13.53;;;1.93;;
56667;SDS011;42542;48.360;10.958;2024-01-25T07:39:22;12.32;;;2.35;;
56667;SDS011;42542;48.360;10.958;2024-01-25T07:42:24;11.93;;;2.25;;
56667;SDS011;42542;48.360;10.958;2024-01-25T07:45:25;11.55;;;2.33;;
56667;SDS011;42542;48.360;10.958;2024-01-25T07:48:28;11.00;;;2.00;;
56667;SDS011;42542;48.360;10.958;2024-01-25T07:51:30;11.25;;;1.92;;
56667;SDS011;42542;48.360;10.958;2024-01-25T07:54:31;9.32;;;1.60;;
56667;SDS011;42542;48.360;10.958;2024-01-25T07:57:33;11.50;;;2.00;;
56667;SDS011;42542;48.360;10.958;2024-01-25T08:00:36;12.90;;;2.10;;
56667;SDS011;42542;48.360;10.958;2024-01-25T08:03:38;9.65;;;2.30;;
56667;SDS011;42542;48.360;10.958;2024-01-25T08:06:40;11.53;;;2.40;;
56667;SDS011;42542;48.360;10.958;2024-01-25T08:09:43;9.50;;;2.08;;
56667;SDS011;42542;48.360;10.958;2024-01-25T08:12:44;12.00;;;2.03;;
56667;SDS011;42542;48.360;10.958;2024-01-25T08:15:59;16.05;;;2.50;;
56667;SDS011;42542;48.360;10.958;2024-01-25T08:19:01;12.98;;;3.05;;
56667;SDS011;42542;48.360;10.958;2024-01-25T08:22:03;17.88;;;4.15;;
56667;SDS011;42542;48.360;10.958;2024-01-25T08:25:05;12.80;;;2.42;;
56667;SDS011;42542;48.360;10.958;2024-01-25T08:28:08;10.87;;;2.60;;
56667;SDS011;42542;48.360;10.958;2024-01-25T08:31:10;13.30;;;2.90;;
56667;SDS011;42542;48.360;10.958;2024-01-25T08:34:12;14.32;;;3.60;;
56667;SDS011;42542;48.360;10.958;2024-01-25T08:37:14;20.83;;;6.70;;
56667;SDS011;42542;48.360;10.958;2024-01-25T08:40:16;15.68;;;3.70;;
56667;SDS011;42542;48.360;10.958;2024-01-25T08:43:18;13.07;;;2.40;;
56667;SDS011;42542;48.360;10.958;2024-01-25T08:46:21;12.63;;;2.58;;
56667;SDS011;42542;48.360;10.958;2024-01-25T08:49:23;8.57;;;1.98;;
56667;SDS011;42542;48.360;10.958;2024-01-25T08:52:25;12.73;;;1.73;;
56667;SDS011;42542;48.360;10.958;2024-01-25T08:55:27;14.77;;;2.35;;
56667;SDS011;42542;48.360;10.958;2024-01-25T08:58:29;14.77;;;2.00;;
56667;SDS011;42542;48.360;10.958;2024-01-25T09:01:32;15.25;;;2.38;;
56667;SDS011;42542;48.360;10.958;2024-01-25T09:04:34;9.73;;;2.28;;
56667;SDS011;42542;48.360;10.958;2024-01-25T09:07:37;13.90;;;1.93;;
56667;SDS011;42542;48.360;10.958;2024-01-25T09:10:43;12.65;;;1.95;;
56667;SDS011;42542;48.360;10.958;2024-01-25T09:13:46;18.50;;;2.05;;
56667;SDS011;42542;48.360;10.958;2024-01-25T09:16:51;13.75;;;1.63;;
56667;SDS011;42542;48.360;10.958;2024-01-25T09:19:54;13.77;;;2.03;;
56667;SDS011;42542;48.360;10.958;2024-01-25T09:22:56;16.58;;;2.33;;
56667;SDS011;42542;48.360;10.958;2024-01-25T09:25:58;13.13;;;2.00;;
56667;SDS011;42542;48.360;10.958;2024-01-25T09:29:00;10.00;;;1.53;;
56667;SDS011;42542;48.360;10.958;2024-01-25T09:32:03;9.82;;;1.70;;
56667;SDS011;42542;48.360;10.958;2024-01-25T09:35:06;12.75;;;1.55;;
56667;SDS011;42542;48.360;10.958;2024-01-25T09:38:10;12.77;;;2.30;;
56667;SDS011;42542;48.360;10.958;2024-01-25T09:41:11;8.90;;;1.30;;
56667;SDS011;42542;48.360;10.958;2024-01-25T09:44:13;11.10;;;2.03;;
56667;SDS011;42542;48.360;10.958;2024-01-25T09:47:15;9.70;;;1.75;;
56667;SDS011;42542;48.360;10.958;2024-01-25T09:50:18;15.93;;;1.98;;
56667;SDS011;42542;48.360;10.958;2024-01-25T09:53:23;9.65;;;1.70;;
56667;SDS011;42542;48.360;10.958;2024-01-25T09:56:27;11.93;;;2.10;;
56667;SDS011;42542;48.360;10.958;2024-01-25T09:59:33;12.50;;;1.80;;
56667;SDS011;42542;48.360;10.958;2024-01-25T10:02:35;10.57;;;2.10;;
56667;SDS011;42542;48.360;10.958;2024-01-25T10:05:37;9.23;;;1.80;;
56667;SDS011;42542;48.360;10.958;2024-01-25T10:08:39;8.83;;;1.87;;
56667;SDS011;42542;48.360;10.958;2024-01-25T10:11:41;12.20;;;2.03;;
56667;SDS011;42542;48.360;10.958;2024-01-25T10:14:55;10.57;;;1.98;;
56667;SDS011;42542;48.360;10.958;2024-01-25T10:17:56;13.30;;;1.70;;
56667;SDS011;42542;48.360;10.958;2024-01-25T10:21:18;14.45;;;2.30;;
56667;SDS011;42542;48.360;10.958;2024-01-25T10:24:21;15.48;;;2.90;;
56667;SDS011;42542;48.360;10.958;2024-01-25T10:27:23;15.02;;;2.70;;
56667;SDS011;42542;48.360;10.958;2024-01-25T10:30:25;14.07;;;3.20;;
56667;SDS011;42542;48.360;10.958;2024-01-25T10:33:27;13.65;;;2.45;;
56667;SDS011;42542;48.360;10.958;2024-01-25T10:36:29;9.27;;;1.63;;
56667;SDS011;42542;48.360;10.958;2024-01-25T10:39:33;11.00;;;2.40;;
56667;SDS011;42542;48.360;10.958;2024-01-25T10:42:35;13.43;;;2.05;;
56667;SDS011;42542;48.360;10.958;2024-01-25T10:45:37;12.30;;;2.25;;
56667;SDS011;42542;48.360;10.958;2024-01-25T10:48:39;14.90;;;2.40;;
56667;SDS011;42542;48.360;10.958;2024-01-25T10:51:42;8.85;;;2.03;;
56667;SDS011;42542;48.360;10.958;2024-01-25T10:54:45;11.57;;;2.38;;
56667;SDS011;42542;48.360;10.958;2024-01-25T10:57:48;13.25;;;2.03;;
56667;SDS011;42542;48.360;10.958;2024-01-25T11:00:50;14.83;;;2.10;;
56667;SDS011;42542;48.360;10.958;2024-01-25T11:04:01;12.60;;;1.90;;
56667;SDS011;42542;48.360;10.958;2024-01-25T11:07:06;10.80;;;2.08;;
56667;SDS011;42542;48.360;10.958;2024-01-25T11:10:17;8.47;;;1.63;;
56667;SDS011;42542;48.360;10.958;2024-01-25T11:13:25;9.20;;;1.67;;
56667;SDS011;42542;48.360;10.958;2024-01-25T11:16:30;10.15;;;1.80;;
56667;SDS011;42542;48.360;10.958;2024-01-25T11:19:33;14.55;;;2.05;;
56667;SDS011;42542;48.360;10.958;2024-01-25T11:22:35;9.88;;;1.88;;
56667;SDS011;42542;48.360;10.958;2024-01-25T11:25:37;11.45;;;1.92;;
56667;SDS011;42542;48.360;10.958;2024-01-25T11:28:39;16.50;;;1.88;;
56667;SDS011;42542;48.360;10.958;2024-01-25T11:31:42;11.93;;;1.70;;
56667;SDS011;42542;48.360;10.958;2024-01-25T11:34:57;17.70;;;1.73;;
56667;SDS011;42542;48.360;10.958;2024-01-25T11:38:00;8.38;;;1.40;;
56667;SDS011;42542;48.360;10.958;2024-01-25T11:41:03;9.13;;;1.60;;
56667;SDS011;42542;48.360;10.958;2024-01-25T11:44:05;13.68;;;1.88;;
56667;SDS011;42542;48.360;10.958;2024-01-25T11:47:08;9.90;;;1.75;;
56667;SDS011;42542;48.360;10.958;2024-01-25T11:50:10;11.20;;;2.28;;
56667;SDS011;42542;48.360;10.958;2024-01-25T11:53:14;13.27;;;1.70;;
56667;SDS011;42542;48.360;10.958;2024-01-25T11:56:22;12.25;;;2.10;;
56667;SDS011;42542;48.360;10.958;2024-01-25T11:59:28;9.35;;;2.13;;
56667;SDS011;42542;48.360;10.958;2024-01-25T12:02:30;13.27;;;2.00;;
56667;SDS011;42542;48.360;10.958;2024-01-25T12:05:33;11.95;;;2.20;;
56667;SDS011;42542;48.360;10.958;2024-01-25T12:08:35;12.35;;;2.67;;
56667;SDS011;42542;48.360;10.958;2024-01-25T12:11:38;8.47;;;1.90;;
56667;SDS011;42542;48.360;10.958;2024-01-25T12:14:41;10.65;;;3.63;;
56667;SDS011;42542;48.360;10.958;2024-01-25T12:17:44;10.70;;;2.53;;
56667;SDS011;42542;48.360;10.958;2024-01-25T12:20:45;14.45;;;2.65;;
56667;SDS011;42542;48.360;10.958;2024-01-25T12:23:47;13.00;;;2.00;;
56667;SDS011;42542;48.360;10.958;2024-01-25T12:26:49;12.77;;;2.08;;
56667;SDS011;42542;48.360;10.958;2024-01-25T12:29:52;12.07;;;2.53;;
56667;SDS011;42542;48.360;10.958;2024-01-25T12:32:55;8.23;;;1.70;;
56667;SDS011;42542;48.360;10.958;2024-01-25T12:35:57;12.02;;;2.42;;
56667;SDS011;42542;48.360;10.958;2024-01-25T12:39:00;9.38;;;2.22;;
56667;SDS011;42542;48.360;10.958;2024-01-25T12:42:03;17.33;;;2.30;;
56667;SDS011;42542;48.360;10.958;2024-01-25T12:45:08;13.25;;;1.75;;
56667;SDS011;42542;48.360;10.958;2024-01-25T12:48:10;11.98;;;2.10;;
56667;SDS011;42542;48.360;10.958;2024-01-25T12:51:13;9.27;;;1.70;;
56667;SDS011;42542;48.360;10.958;2024-01-25T12:54:15;8.90;;;1.60;;
56667;SDS011;42542;48.360;10.958;2024-01-25T12:57:17;8.73;;;1.80;;
56667;SDS011;42542;48.360;10.958;2024-01-25T13:00:19;6.97;;;1.55;;
56667;SDS011;42542;48.360;10.958;2024-01-25T13:03:20;8.67;;;1.30;;
56667;SDS011;42542;48.360;10.958;2024-01-25T13:06:22;8.40;;;2.08;;
56667;SDS011;42542;48.360;10.958;2024-01-25T13:09:24;9.18;;;1.73;;
56667;SDS011;42542;48.360;10.958;2024-01-25T13:12:26;13.10;;;1.30;;
56667;SDS011;42542;48.360;10.958;2024-01-25T13:15:28;8.30;;;1.67;;
56667;SDS011;42542;48.360;10.958;2024-01-25T13:18:31;7.43;;;1.65;;
56667;SDS011;42542;48.360;10.958;2024-01-25T13:21:32;7.68;;;1.60;;
56667;SDS011;42542;48.360;10.958;2024-01-25T13:24:34;8.90;;;1.58;;
56667;SDS011;42542;48.360;10.958;2024-01-25T13:27:36;14.40;;;1.83;;
56667;SDS011;42542;48.360;10.958;2024-01-25T13:30:38;7.70;;;1.38;;
56667;SDS011;42542;48.360;10.958;2024-01-25T13:33:40;12.17;;;1.50;;
56667;SDS011;42542;48.360;10.958;2024-01-25T13:36:45;12.80;;;1.50;;
56667;SDS011;42542;48.360;10.958;2024-01-25T13:39:46;7.88;;;1.48;;
56667;SDS011;42542;48.360;10.958;2024-01-25T13:42:49;6.80;;;1.30;;
56667;SDS011;42542;48.360;10.958;2024-01-25T13:45:51;7.82;;;1.50;;
56667;SDS011;42542;48.360;10.958;2024-01-25T13:48:53;9.27;;;1.63;;
56667;SDS011;42542;48.360;10.958;2024-01-25T13:51:55;11.77;;;1.77;;
56667;SDS011;42542;48.360;10.958;2024-01-25T13:54:57;13.73;;;1.83;;
56667;SDS011;42542;48.360;10.958;2024-01-25T13:57:59;9.07;;;1.48;;
56667;SDS011;42542;48.360;10.958;2024-01-25T14:01:03;8.63;;;1.50;;
56667;SDS011;42542;48.360;10.958;2024-01-25T14:04:06;9.60;;;1.50;;
56667;SDS011;42542;48.360;10.958;2024-01-25T14:07:08;10.65;;;1.80;;
56667;SDS011;42542;48.360;10.958;2024-01-25T14:10:11;9.52;;;1.80;;
56667;SDS011;42542;48.360;10.958;2024-01-25T14:13:14;10.27;;;1.70;;
56667;SDS011;42542;48.360;10.958;2024-01-25T14:16:16;7.53;;;1.77;;
56667;SDS011;42542;48.360;10.958;2024-01-25T14:19:22;8.88;;;1.60;;
56667;SDS011;42542;48.360;10.958;2024-01-25T14:22:25;12.25;;;2.30;;
56667;SDS011;42542;48.360;10.958;2024-01-25T14:25:33;9.98;;;1.90;;
56667;SDS011;42542;48.360;10.958;2024-01-25T14:28:35;9.45;;;1.33;;
56667;SDS011;42542;48.360;10.958;2024-01-25T14:31:37;12.25;;;1.80;;
56667;SDS011;42542;48.360;10.958;2024-01-25T14:34:39;7.30;;;1.30;;
56667;SDS011;42542;48.360;10.958;2024-01-25T14:37:41;11.00;;;1.88;;
56667;SDS011;42542;48.360;10.958;2024-01-25T14:40:43;9.80;;;1.65;;
56667;SDS011;42542;48.360;10.958;2024-01-25T14:44:00;13.30;;;1.83;;
56667;SDS011;42542;48.360;10.958;2024-01-25T14:47:02;11.57;;;1.83;;
56667;SDS011;42542;48.360;10.958;2024-01-25T14:50:05;11.50;;;1.48;;
56667;SDS011;42542;48.360;10.958;2024-01-25T14:53:07;8.82;;;1.52;;
56667;SDS011;42542;48.360;10.958;2024-01-25T14:56:09;10.80;;;1.58;;
56667;SDS011;42542;48.360;10.958;2024-01-25T14:59:11;10.43;;;1.58;;
56667;SDS011;42542;48.360;10.958;2024-01-25T15:02:12;8.70;;;1.45;;
56667;SDS011;42542;48.360;10.958;2024-01-25T15:05:14;10.33;;;1.70;;
56667;SDS011;42542;48.360;10.958;2024-01-25T15:08:16;14.23;;;1.80;;
56667;SDS011;42542;48.360;10.958;2024-01-25T15:11:18;9.70;;;1.48;;
56667;SDS011;42542;48.360;10.958;2024-01-25T15:14:19;9.17;;;1.60;;
56667;SDS011;42542;48.360;10.958;2024-01-25T15:17:21;9.52;;;1.67;;
56667;SDS011;42542;48.360;10.958;2024-01-25T15:20:23;9.23;;;1.42;;
56667;SDS011;42542;48.360;10.958;2024-01-25T15:23:26;7.32;;;1.70;;
56667;SDS011;42542;48.360;10.958;2024-01-25T15:26:28;9.68;;;1.60;;
56667;SDS011;42542;48.360;10.958;2024-01-25T15:29:29;9.75;;;1.83;;
56667;SDS011;42542;48.360;10.958;2024-01-25T15:32:32;6.80;;;1.48;;
56667;SDS011;42542;48.360;10.958;2024-01-25T15:35:33;10.90;;;1.60;;
56667;SDS011;42542;48.360;10.958;2024-01-25T15:38:35;9.43;;;1.80;;
56667;SDS011;42542;48.360;10.958;2024-01-25T15:41:37;8.63;;;1.95;;
56667;SDS011;42542;48.360;10.958;2024-01-25T15:44:39;9.87;;;2.77;;
56667;SDS011;42542;48.360;10.958;2024-01-25T15:47:41;12.57;;;2.30;;
56667;SDS011;42542;48.360;10.958;2024-01-25T15:50:45;11.32;;;2.17;;
56667;SDS011;42542;48.360;10.958;2024-01-25T15:53:47;10.48;;;2.33;;
56667;SDS011;42542;48.360;10.958;2024-01-25T15:56:50;10.80;;;2.00;;
56667;SDS011;42542;48.360;10.958;2024-01-25T15:59:53;6.88;;;1.60;;
56667;SDS011;42542;48.360;10.958;2024-01-25T16:02:55;8.63;;;1.88;;
56667;SDS011;42542;48.360;10.958;2024-01-25T16:05:58;11.53;;;1.77;;
56667;SDS011;42542;48.360;10.958;2024-01-25T16:09:01;7.63;;;1.90;;
56667;SDS011;42542;48.360;10.958;2024-01-25T16:12:08;13.25;;;2.33;;
56667;SDS011;42542;48.360;10.958;2024-01-25T16:15:10;9.53;;;1.97;;
56667;SDS011;42542;48.360;10.958;2024-01-25T16:18:12;13.75;;;4.10;;
56667;SDS011;42542;48.360;10.958;2024-01-25T16:21:15;37.20;;;12.30;;
56667;SDS011;42542;48.360;10.958;2024-01-25T16:24:17;37.00;;;11.25;;
56667;SDS011;42542;48.360;10.958;2024-01-25T16:27:21;31.20;;;10.18;;
56667;SDS011;42542;48.360;10.958;2024-01-25T16:30:22;30.15;;;11.18;;
56667;SDS011;42542;48.360;10.958;2024-01-25T16:33:24;26.98;;;10.57;;
56667;SDS011;42542;48.360;10.958;2024-01-25T16:36:26;27.20;;;9.13;;
56667;SDS011;42542;48.360;10.958;2024-01-25T16:39:29;25.65;;;7.50;;
56667;SDS011;42542;48.360;10.958;2024-01-25T16:42:31;14.25;;;4.88;;
56667;SDS011;42542;48.360;10.958;2024-01-25T16:45:34;17.30;;;4.90;;
56667;SDS011;42542;48.360;10.958;2024-01-25T16:48:36;14.60;;;4.03;;
56667;SDS011;42542;48.360;10.958;2024-01-25T16:51:37;28.52;;;6.35;;
56667;SDS011;42542;48.360;10.958;2024-01-25T16:54:39;19.95;;;5.10;;
56667;SDS011;42542;48.360;10.958;2024-01-25T16:57:42;19.05;;;5.50;;
56667;SDS011;42542;48.360;10.958;2024-01-25T17:00:43;15.90;;;5.20;;
56667;SDS011;42542;48.360;10.958;2024-01-25T17:03:46;17.88;;;5.30;;
56667;SDS011;42542;48.360;10.958;2024-01-25T17:06:47;20.97;;;5.70;;
56667;SDS011;42542;48.360;10.958;2024-01-25T17:09:50;15.45;;;4.63;;
56667;SDS011;42542;48.360;10.958;2024-01-25T17:12:52;16.85;;;4.47;;
56667;SDS011;42542;48.360;10.958;2024-01-25T17:15:54;21.30;;;4.93;;
56667;SDS011;42542;48.360;10.958;2024-01-25T17:18:57;17.73;;;4.68;;
56667;SDS011;42542;48.360;10.958;2024-01-25T17:22:00;15.18;;;4.80;;
56667;SDS011;42542;48.360;10.958;2024-01-25T17:25:03;17.55;;;4.93;;
56667;SDS011;42542;48.360;10.958;2024-01-25T17:28:05;12.23;;;4.30;;
56667;SDS011;42542;48.360;10.958;2024-01-25T17:31:07;18.55;;;4.20;;
56667;SDS011;42542;48.360;10.958;2024-01-25T17:34:09;12.10;;;4.00;;
56667;SDS011;42542;48.360;10.958;2024-01-25T17:37:15;14.47;;;4.60;;
56667;SDS011;42542;48.360;10.958;2024-01-25T17:40:17;11.63;;;3.55;;
56667;SDS011;42542;48.360;10.958;2024-01-25T17:43:19;15.20;;;4.25;;
56667;SDS011;42542;48.360;10.958;2024-01-25T17:46:26;14.27;;;4.83;;
56667;SDS011;42542;48.360;10.958;2024-01-25T17:49:29;14.32;;;4.57;;
56667;SDS011;42542;48.360;10.958;2024-01-25T17:52:32;14.50;;;4.68;;